sensor_id;sensor_type;location;lat;lon;timestamp;P1;durP1;ratioP1;P2;durP2;ratioP2
10410;SDS011;5251;52.112;8.606;2022-07-15T00:01:46;2.33;;;1.52;;
10410;SDS011;5251;52.112;8.606;2022-07-15T00:04:11;1.45;;;1.30;;
10410;SDS011;5251;52.112;8.606;2022-07-15T00:06:37;4.45;;;1.60;;
10410;SDS011;5251;52.112;8.606;2022-07-15T00:09:03;2.30;;;1.67;;
10410;SDS011;5251;52.112;8.606;2022-07-15T00:11:28;3.47;;;1.70;;
10410;SDS011;5251;52.112;8.606;2022-07-15T00:13:54;2.80;;;1.60;;
10410;SDS011;5251;52.112;8.606;2022-07-15T00:16:20;3.67;;;1.40;;
10410;SDS011;5251;52.112;8.606;2022-07-15T00:18:46;2.42;;;1.30;;
10410;SDS011;5251;52.112;8.606;2022-07-15T00:21:11;2.35;;;1.50;;
10410;SDS011;5251;52.112;8.606;2022-07-15T00:23:37;3.33;;;1.60;;
10410;SDS011;5251;52.112;8.606;2022-07-15T00:26:03;3.85;;;1.75;;
10410;SDS011;5251;52.112;8.606;2022-07-15T00:28:28;3.67;;;1.63;;
10410;SDS011;5251;52.112;8.606;2022-07-15T00:30:54;4.53;;;1.77;;
10410;SDS011;5251;52.112;8.606;2022-07-15T00:33:20;2.85;;;1.40;;
10410;SDS011;5251;52.112;8.606;2022-07-15T00:35:46;2.38;;;1.60;;
10410;SDS011;5251;52.112;8.606;2022-07-15T00:38:12;1.52;;;1.38;;
10410;SDS011;5251;52.112;8.606;2022-07-15T00:40:44;2.75;;;1.40;;
10410;SDS011;5251;52.112;8.606;2022-07-15T00:43:11;3.25;;;1.83;;
10410;SDS011;5251;52.112;8.606;2022-07-15T00:45:37;2.67;;;1.50;;
10410;SDS011;5251;52.112;8.606;2022-07-15T00:48:03;2.58;;;1.60;;
10410;SDS011;5251;52.112;8.606;2022-07-15T00:50:29;3.15;;;1.50;;
10410;SDS011;5251;52.112;8.606;2022-07-15T00:53:05;4.15;;;2.35;;
10410;SDS011;5251;52.112;8.606;2022-07-15T00:55:36;2.42;;;1.20;;
10410;SDS011;5251;52.112;8.606;2022-07-15T00:58:04;3.28;;;1.55;;
10410;SDS011;5251;52.112;8.606;2022-07-15T01:00:33;5.25;;;1.58;;
10410;SDS011;5251;52.112;8.606;2022-07-15T01:03:00;2.47;;;1.50;;
10410;SDS011;5251;52.112;8.606;2022-07-15T01:05:26;2.33;;;1.60;;
10410;SDS011;5251;52.112;8.606;2022-07-15T01:07:53;3.53;;;1.90;;
10410;SDS011;5251;52.112;8.606;2022-07-15T01:10:19;2.42;;;1.58;;
10410;SDS011;5251;52.112;8.606;2022-07-15T01:12:47;6.50;;;1.70;;
10410;SDS011;5251;52.112;8.606;2022-07-15T01:15:13;3.92;;;1.67;;
10410;SDS011;5251;52.112;8.606;2022-07-15T01:17:39;3.08;;;2.10;;
10410;SDS011;5251;52.112;8.606;2022-07-15T01:20:06;4.10;;;1.70;;
10410;SDS011;5251;52.112;8.606;2022-07-15T01:22:32;3.13;;;1.90;;
10410;SDS011;5251;52.112;8.606;2022-07-15T01:24:59;3.83;;;1.70;;
10410;SDS011;5251;52.112;8.606;2022-07-15T01:27:24;3.25;;;1.60;;
10410;SDS011;5251;52.112;8.606;2022-07-15T01:29:51;5.05;;;1.80;;
10410;SDS011;5251;52.112;8.606;2022-07-15T01:32:16;4.38;;;1.70;;
10410;SDS011;5251;52.112;8.606;2022-07-15T01:34:42;3.30;;;1.70;;
10410;SDS011;5251;52.112;8.606;2022-07-15T01:37:08;2.80;;;1.50;;
10410;SDS011;5251;52.112;8.606;2022-07-15T01:39:33;5.38;;;2.30;;
10410;SDS011;5251;52.112;8.606;2022-07-15T01:41:59;3.83;;;1.52;;
10410;SDS011;5251;52.112;8.606;2022-07-15T01:44:25;4.20;;;1.70;;
10410;SDS011;5251;52.112;8.606;2022-07-15T01:46:50;2.67;;;1.60;;
10410;SDS011;5251;52.112;8.606;2022-07-15T01:49:16;3.13;;;1.80;;
10410;SDS011;5251;52.112;8.606;2022-07-15T01:51:50;2.65;;;1.60;;
10410;SDS011;5251;52.112;8.606;2022-07-15T01:54:22;2.22;;;1.65;;
10410;SDS011;5251;52.112;8.606;2022-07-15T01:56:49;2.53;;;1.50;;
10410;SDS011;5251;52.112;8.606;2022-07-15T01:59:16;2.95;;;1.58;;
10410;SDS011;5251;52.112;8.606;2022-07-15T02:01:41;4.03;;;1.50;;
10410;SDS011;5251;52.112;8.606;2022-07-15T02:04:08;2.53;;;1.75;;
10410;SDS011;5251;52.112;8.606;2022-07-15T02:06:34;3.05;;;1.55;;
10410;SDS011;5251;52.112;8.606;2022-07-15T02:08:59;2.80;;;1.70;;
10410;SDS011;5251;52.112;8.606;2022-07-15T02:11:25;4.15;;;1.42;;
10410;SDS011;5251;52.112;8.606;2022-07-15T02:13:51;2.35;;;1.50;;
10410;SDS011;5251;52.112;8.606;2022-07-15T02:16:19;2.90;;;1.60;;
10410;SDS011;5251;52.112;8.606;2022-07-15T02:18:44;2.08;;;1.70;;
10410;SDS011;5251;52.112;8.606;2022-07-15T02:21:10;2.95;;;1.30;;
10410;SDS011;5251;52.112;8.606;2022-07-15T02:23:36;2.08;;;1.77;;
10410;SDS011;5251;52.112;8.606;2022-07-15T02:26:01;2.38;;;1.63;;
10410;SDS011;5251;52.112;8.606;2022-07-15T02:28:27;2.42;;;1.70;;
10410;SDS011;5251;52.112;8.606;2022-07-15T02:30:52;2.20;;;1.58;;
10410;SDS011;5251;52.112;8.606;2022-07-15T02:33:18;2.50;;;1.80;;
10410;SDS011;5251;52.112;8.606;2022-07-15T02:35:44;2.22;;;1.63;;
10410;SDS011;5251;52.112;8.606;2022-07-15T02:38:09;3.30;;;1.73;;
10410;SDS011;5251;52.112;8.606;2022-07-15T02:40:35;2.17;;;1.70;;
10410;SDS011;5251;52.112;8.606;2022-07-15T02:43:01;5.35;;;1.70;;
10410;SDS011;5251;52.112;8.606;2022-07-15T02:45:29;1.73;;;1.40;;
10410;SDS011;5251;52.112;8.606;2022-07-15T02:47:58;2.47;;;1.40;;
10410;SDS011;5251;52.112;8.606;2022-07-15T02:50:24;3.45;;;1.70;;
10410;SDS011;5251;52.112;8.606;2022-07-15T02:52:50;2.78;;;1.83;;
10410;SDS011;5251;52.112;8.606;2022-07-15T02:55:15;4.13;;;2.03;;
10410;SDS011;5251;52.112;8.606;2022-07-15T02:57:42;2.50;;;1.60;;
10410;SDS011;5251;52.112;8.606;2022-07-15T03:00:08;3.67;;;1.80;;
10410;SDS011;5251;52.112;8.606;2022-07-15T03:02:39;3.05;;;1.90;;
10410;SDS011;5251;52.112;8.606;2022-07-15T03:05:07;2.55;;;1.88;;
10410;SDS011;5251;52.112;8.606;2022-07-15T03:07:33;5.10;;;2.50;;
10410;SDS011;5251;52.112;8.606;2022-07-15T03:09:59;4.63;;;2.00;;
10410;SDS011;5251;52.112;8.606;2022-07-15T03:12:24;2.58;;;1.70;;
10410;SDS011;5251;52.112;8.606;2022-07-15T03:14:50;4.22;;;1.90;;
10410;SDS011;5251;52.112;8.606;2022-07-15T03:17:16;3.80;;;2.17;;
10410;SDS011;5251;52.112;8.606;2022-07-15T03:19:41;3.67;;;2.35;;
10410;SDS011;5251;52.112;8.606;2022-07-15T03:22:07;3.45;;;1.95;;
10410;SDS011;5251;52.112;8.606;2022-07-15T03:24:33;3.88;;;2.03;;
10410;SDS011;5251;52.112;8.606;2022-07-15T03:26:59;3.70;;;2.30;;
10410;SDS011;5251;52.112;8.606;2022-07-15T03:29:24;8.13;;;2.50;;
10410;SDS011;5251;52.112;8.606;2022-07-15T03:31:51;4.63;;;2.60;;
10410;SDS011;5251;52.112;8.606;2022-07-15T03:34:17;4.60;;;2.13;;
10410;SDS011;5251;52.112;8.606;2022-07-15T03:36:43;4.40;;;2.40;;
10410;SDS011;5251;52.112;8.606;2022-07-15T03:39:09;2.17;;;1.98;;
10410;SDS011;5251;52.112;8.606;2022-07-15T03:41:35;5.32;;;2.22;;
10410;SDS011;5251;52.112;8.606;2022-07-15T03:44:01;7.80;;;2.47;;
10410;SDS011;5251;52.112;8.606;2022-07-15T03:46:28;6.95;;;2.55;;
10410;SDS011;5251;52.112;8.606;2022-07-15T03:48:55;5.40;;;2.30;;
10410;SDS011;5251;52.112;8.606;2022-07-15T03:51:21;5.75;;;2.53;;
10410;SDS011;5251;52.112;8.606;2022-07-15T03:53:49;5.05;;;2.42;;
10410;SDS011;5251;52.112;8.606;2022-07-15T03:56:15;3.55;;;2.28;;
10410;SDS011;5251;52.112;8.606;2022-07-15T03:58:41;3.58;;;1.95;;
10410;SDS011;5251;52.112;8.606;2022-07-15T04:01:09;4.68;;;2.45;;
10410;SDS011;5251;52.112;8.606;2022-07-15T04:03:35;5.55;;;2.40;;
10410;SDS011;5251;52.112;8.606;2022-07-15T04:06:00;3.42;;;2.10;;
10410;SDS011;5251;52.112;8.606;2022-07-15T04:08:26;3.72;;;2.38;;
10410;SDS011;5251;52.112;8.606;2022-07-15T04:10:52;3.55;;;2.40;;
10410;SDS011;5251;52.112;8.606;2022-07-15T04:13:17;4.88;;;2.80;;
10410;SDS011;5251;52.112;8.606;2022-07-15T04:15:44;4.53;;;2.72;;
10410;SDS011;5251;52.112;8.606;2022-07-15T04:18:11;3.92;;;2.42;;
10410;SDS011;5251;52.112;8.606;2022-07-15T04:20:36;7.60;;;2.53;;
10410;SDS011;5251;52.112;8.606;2022-07-15T04:23:02;5.05;;;2.70;;
10410;SDS011;5251;52.112;8.606;2022-07-15T04:25:28;7.50;;;2.75;;
10410;SDS011;5251;52.112;8.606;2022-07-15T04:27:53;4.95;;;2.38;;
10410;SDS011;5251;52.112;8.606;2022-07-15T04:30:19;5.32;;;2.40;;
10410;SDS011;5251;52.112;8.606;2022-07-15T04:32:44;6.22;;;2.33;;
10410;SDS011;5251;52.112;8.606;2022-07-15T04:35:10;5.63;;;2.30;;
10410;SDS011;5251;52.112;8.606;2022-07-15T04:37:36;5.60;;;2.05;;
10410;SDS011;5251;52.112;8.606;2022-07-15T04:40:01;5.00;;;2.20;;
10410;SDS011;5251;52.112;8.606;2022-07-15T04:42:27;6.15;;;2.45;;
10410;SDS011;5251;52.112;8.606;2022-07-15T04:44:52;4.30;;;2.13;;
10410;SDS011;5251;52.112;8.606;2022-07-15T04:47:18;4.75;;;2.28;;
10410;SDS011;5251;52.112;8.606;2022-07-15T04:49:44;5.43;;;2.00;;
10410;SDS011;5251;52.112;8.606;2022-07-15T04:52:28;5.80;;;2.00;;
10410;SDS011;5251;52.112;8.606;2022-07-15T04:54:55;5.28;;;2.00;;
10410;SDS011;5251;52.112;8.606;2022-07-15T04:57:21;3.92;;;1.85;;
10410;SDS011;5251;52.112;8.606;2022-07-15T04:59:47;3.33;;;2.00;;
10410;SDS011;5251;52.112;8.606;2022-07-15T05:02:13;6.20;;;2.15;;
10410;SDS011;5251;52.112;8.606;2022-07-15T05:04:39;3.30;;;1.85;;
10410;SDS011;5251;52.112;8.606;2022-07-15T05:07:05;3.72;;;1.80;;
10410;SDS011;5251;52.112;8.606;2022-07-15T05:09:30;5.45;;;1.92;;
10410;SDS011;5251;52.112;8.606;2022-07-15T05:11:57;3.63;;;1.50;;
10410;SDS011;5251;52.112;8.606;2022-07-15T05:14:23;4.45;;;1.98;;
10410;SDS011;5251;52.112;8.606;2022-07-15T05:16:49;4.35;;;1.52;;
10410;SDS011;5251;52.112;8.606;2022-07-15T05:19:14;5.18;;;1.70;;
10410;SDS011;5251;52.112;8.606;2022-07-15T05:21:40;3.22;;;1.52;;
10410;SDS011;5251;52.112;8.606;2022-07-15T05:24:05;4.35;;;1.90;;
10410;SDS011;5251;52.112;8.606;2022-07-15T05:26:31;4.25;;;1.55;;
10410;SDS011;5251;52.112;8.606;2022-07-15T05:28:57;4.13;;;1.63;;
10410;SDS011;5251;52.112;8.606;2022-07-15T05:31:23;7.43;;;2.10;;
10410;SDS011;5251;52.112;8.606;2022-07-15T05:33:48;5.25;;;1.88;;
10410;SDS011;5251;52.112;8.606;2022-07-15T05:36:14;4.30;;;1.60;;
10410;SDS011;5251;52.112;8.606;2022-07-15T05:38:41;2.60;;;1.63;;
10410;SDS011;5251;52.112;8.606;2022-07-15T05:41:07;2.47;;;1.65;;
10410;SDS011;5251;52.112;8.606;2022-07-15T05:43:34;4.50;;;1.77;;
10410;SDS011;5251;52.112;8.606;2022-07-15T05:46:00;5.13;;;1.77;;
10410;SDS011;5251;52.112;8.606;2022-07-15T05:48:26;4.25;;;1.63;;
10410;SDS011;5251;52.112;8.606;2022-07-15T05:50:51;3.25;;;1.52;;
10410;SDS011;5251;52.112;8.606;2022-07-15T05:53:17;4.15;;;1.45;;
10410;SDS011;5251;52.112;8.606;2022-07-15T05:55:43;4.65;;;1.75;;
10410;SDS011;5251;52.112;8.606;2022-07-15T05:58:08;5.70;;;1.58;;
10410;SDS011;5251;52.112;8.606;2022-07-15T06:00:35;4.60;;;1.45;;
10410;SDS011;5251;52.112;8.606;2022-07-15T06:03:02;5.10;;;1.63;;
10410;SDS011;5251;52.112;8.606;2022-07-15T06:05:28;4.07;;;1.30;;
10410;SDS011;5251;52.112;8.606;2022-07-15T06:07:54;5.07;;;1.30;;
10410;SDS011;5251;52.112;8.606;2022-07-15T06:10:20;3.83;;;1.77;;
10410;SDS011;5251;52.112;8.606;2022-07-15T06:12:46;4.00;;;1.65;;
10410;SDS011;5251;52.112;8.606;2022-07-15T06:15:11;4.88;;;1.70;;
10410;SDS011;5251;52.112;8.606;2022-07-15T06:17:37;5.22;;;1.95;;
10410;SDS011;5251;52.112;8.606;2022-07-15T06:20:03;5.28;;;1.60;;
10410;SDS011;5251;52.112;8.606;2022-07-15T06:22:30;5.25;;;1.40;;
10410;SDS011;5251;52.112;8.606;2022-07-15T06:24:56;5.90;;;1.83;;
10410;SDS011;5251;52.112;8.606;2022-07-15T06:27:21;5.07;;;1.80;;
10410;SDS011;5251;52.112;8.606;2022-07-15T06:29:48;3.60;;;1.50;;
10410;SDS011;5251;52.112;8.606;2022-07-15T06:32:14;3.95;;;1.30;;
10410;SDS011;5251;52.112;8.606;2022-07-15T06:34:40;4.25;;;1.50;;
10410;SDS011;5251;52.112;8.606;2022-07-15T06:37:06;4.57;;;1.23;;
10410;SDS011;5251;52.112;8.606;2022-07-15T06:39:31;3.72;;;1.20;;
10410;SDS011;5251;52.112;8.606;2022-07-15T06:41:57;4.53;;;1.80;;
10410;SDS011;5251;52.112;8.606;2022-07-15T06:44:24;6.55;;;1.70;;
10410;SDS011;5251;52.112;8.606;2022-07-15T06:46:49;3.28;;;1.25;;
10410;SDS011;5251;52.112;8.606;2022-07-15T06:49:15;3.70;;;1.33;;
10410;SDS011;5251;52.112;8.606;2022-07-15T06:51:40;3.92;;;1.52;;
10410;SDS011;5251;52.112;8.606;2022-07-15T06:54:06;4.40;;;1.20;;
10410;SDS011;5251;52.112;8.606;2022-07-15T06:56:32;2.78;;;1.20;;
10410;SDS011;5251;52.112;8.606;2022-07-15T06:58:58;5.78;;;1.48;;
10410;SDS011;5251;52.112;8.606;2022-07-15T07:01:24;4.82;;;1.52;;
10410;SDS011;5251;52.112;8.606;2022-07-15T07:03:50;2.92;;;1.20;;
10410;SDS011;5251;52.112;8.606;2022-07-15T07:06:15;3.00;;;1.15;;
10410;SDS011;5251;52.112;8.606;2022-07-15T07:08:41;5.53;;;1.42;;
10410;SDS011;5251;52.112;8.606;2022-07-15T07:11:07;4.15;;;1.38;;
10410;SDS011;5251;52.112;8.606;2022-07-15T07:13:33;3.53;;;1.40;;
10410;SDS011;5251;52.112;8.606;2022-07-15T07:15:58;4.15;;;1.40;;
10410;SDS011;5251;52.112;8.606;2022-07-15T07:18:24;3.00;;;1.25;;
10410;SDS011;5251;52.112;8.606;2022-07-15T07:20:50;4.22;;;1.75;;
10410;SDS011;5251;52.112;8.606;2022-07-15T07:23:15;4.40;;;1.42;;
10410;SDS011;5251;52.112;8.606;2022-07-15T07:25:41;5.05;;;1.40;;
10410;SDS011;5251;52.112;8.606;2022-07-15T07:28:07;3.47;;;1.40;;
10410;SDS011;5251;52.112;8.606;2022-07-15T07:30:32;4.85;;;1.50;;
10410;SDS011;5251;52.112;8.606;2022-07-15T07:32:58;3.53;;;1.48;;
10410;SDS011;5251;52.112;8.606;2022-07-15T07:35:24;3.42;;;1.30;;
10410;SDS011;5251;52.112;8.606;2022-07-15T07:37:50;2.13;;;1.15;;
10410;SDS011;5251;52.112;8.606;2022-07-15T07:40:15;3.10;;;1.00;;
10410;SDS011;5251;52.112;8.606;2022-07-15T07:42:42;3.67;;;1.20;;
10410;SDS011;5251;52.112;8.606;2022-07-15T07:45:09;3.40;;;1.40;;
10410;SDS011;5251;52.112;8.606;2022-07-15T07:47:35;4.57;;;1.38;;
10410;SDS011;5251;52.112;8.606;2022-07-15T07:50:04;1.85;;;0.80;;
10410;SDS011;5251;52.112;8.606;2022-07-15T07:52:32;1.88;;;0.95;;
10410;SDS011;5251;52.112;8.606;2022-07-15T07:54:57;2.05;;;1.13;;
10410;SDS011;5251;52.112;8.606;2022-07-15T07:57:23;3.65;;;1.10;;
10410;SDS011;5251;52.112;8.606;2022-07-15T07:59:49;1.65;;;0.93;;
10410;SDS011;5251;52.112;8.606;2022-07-15T08:02:14;2.13;;;0.93;;
10410;SDS011;5251;52.112;8.606;2022-07-15T08:04:40;2.30;;;0.90;;
10410;SDS011;5251;52.112;8.606;2022-07-15T08:07:06;1.83;;;0.98;;
10410;SDS011;5251;52.112;8.606;2022-07-15T08:09:32;1.60;;;0.90;;
10410;SDS011;5251;52.112;8.606;2022-07-15T08:11:58;1.65;;;0.75;;
10410;SDS011;5251;52.112;8.606;2022-07-15T08:14:24;1.45;;;0.73;;
10410;SDS011;5251;52.112;8.606;2022-07-15T08:16:50;3.10;;;1.00;;
10410;SDS011;5251;52.112;8.606;2022-07-15T08:19:16;1.88;;;0.90;;
10410;SDS011;5251;52.112;8.606;2022-07-15T08:21:44;2.92;;;1.10;;
10410;SDS011;5251;52.112;8.606;2022-07-15T08:24:10;2.03;;;0.73;;
10410;SDS011;5251;52.112;8.606;2022-07-15T08:26:37;1.27;;;0.80;;
10410;SDS011;5251;52.112;8.606;2022-07-15T08:29:03;2.13;;;0.70;;
10410;SDS011;5251;52.112;8.606;2022-07-15T08:31:29;2.20;;;0.80;;
10410;SDS011;5251;52.112;8.606;2022-07-15T08:33:55;1.83;;;0.90;;
10410;SDS011;5251;52.112;8.606;2022-07-15T08:36:21;1.73;;;0.75;;
10410;SDS011;5251;52.112;8.606;2022-07-15T08:38:47;2.00;;;0.80;;
10410;SDS011;5251;52.112;8.606;2022-07-15T08:41:14;1.98;;;0.88;;
10410;SDS011;5251;52.112;8.606;2022-07-15T08:43:40;1.02;;;0.73;;
10410;SDS011;5251;52.112;8.606;2022-07-15T08:46:07;2.67;;;0.93;;
10410;SDS011;5251;52.112;8.606;2022-07-15T08:48:34;1.73;;;0.85;;
10410;SDS011;5251;52.112;8.606;2022-07-15T08:51:02;2.08;;;0.80;;
10410;SDS011;5251;52.112;8.606;2022-07-15T08:53:30;1.75;;;0.88;;
10410;SDS011;5251;52.112;8.606;2022-07-15T08:55:57;0.93;;;0.60;;
10410;SDS011;5251;52.112;8.606;2022-07-15T08:58:23;1.23;;;0.75;;
10410;SDS011;5251;52.112;8.606;2022-07-15T09:00:49;1.02;;;0.63;;
10410;SDS011;5251;52.112;8.606;2022-07-15T09:03:14;1.52;;;0.73;;
10410;SDS011;5251;52.112;8.606;2022-07-15T09:05:41;2.10;;;0.70;;
10410;SDS011;5251;52.112;8.606;2022-07-15T09:08:07;0.80;;;0.50;;
10410;SDS011;5251;52.112;8.606;2022-07-15T09:13:26;1.02;;;0.60;;
10410;SDS011;5251;52.112;8.606;2022-07-15T09:15:56;1.35;;;0.70;;
10410;SDS011;5251;52.112;8.606;2022-07-15T09:18:36;2.10;;;0.70;;
10410;SDS011;5251;52.112;8.606;2022-07-15T09:21:20;1.13;;;0.80;;
10410;SDS011;5251;52.112;8.606;2022-07-15T09:23:51;2.67;;;0.90;;
10410;SDS011;5251;52.112;8.606;2022-07-15T09:26:27;2.13;;;0.90;;
10410;SDS011;5251;52.112;8.606;2022-07-15T09:28:55;2.13;;;0.80;;
10410;SDS011;5251;52.112;8.606;2022-07-15T09:34:13;1.40;;;0.90;;
10410;SDS011;5251;52.112;8.606;2022-07-15T09:36:40;1.38;;;0.60;;
10410;SDS011;5251;52.112;8.606;2022-07-15T09:39:08;1.42;;;0.73;;
10410;SDS011;5251;52.112;8.606;2022-07-15T09:41:38;1.20;;;0.75;;
10410;SDS011;5251;52.112;8.606;2022-07-15T09:44:06;1.38;;;0.60;;
10410;SDS011;5251;52.112;8.606;2022-07-15T09:46:47;2.10;;;0.88;;
10410;SDS011;5251;52.112;8.606;2022-07-15T09:51:50;2.08;;;0.85;;
10410;SDS011;5251;52.112;8.606;2022-07-15T09:54:19;3.13;;;0.80;;
10410;SDS011;5251;52.112;8.606;2022-07-15T09:56:46;1.10;;;0.73;;
10410;SDS011;5251;52.112;8.606;2022-07-15T09:59:12;1.77;;;0.90;;
10410;SDS011;5251;52.112;8.606;2022-07-15T10:01:38;1.92;;;0.80;;
10410;SDS011;5251;52.112;8.606;2022-07-15T10:04:05;1.70;;;0.60;;
10410;SDS011;5251;52.112;8.606;2022-07-15T10:06:32;1.92;;;0.88;;
10410;SDS011;5251;52.112;8.606;2022-07-15T10:09:00;2.28;;;0.90;;
10410;SDS011;5251;52.112;8.606;2022-07-15T10:11:27;2.33;;;1.00;;
10410;SDS011;5251;52.112;8.606;2022-07-15T10:30:41;1.90;;;0.70;;
10410;SDS011;5251;52.112;8.606;2022-07-15T10:33:17;0.88;;;0.60;;
10410;SDS011;5251;52.112;8.606;2022-07-15T10:35:48;1.35;;;0.77;;
10410;SDS011;5251;52.112;8.606;2022-07-15T10:46:27;2.05;;;0.70;;
10410;SDS011;5251;52.112;8.606;2022-07-15T10:54:09;0.70;;;0.50;;
10410;SDS011;5251;52.112;8.606;2022-07-15T10:56:55;0.85;;;0.68;;
10410;SDS011;5251;52.112;8.606;2022-07-15T10:59:21;1.40;;;0.70;;
10410;SDS011;5251;52.112;8.606;2022-07-15T11:01:50;1.00;;;0.65;;
10410;SDS011;5251;52.112;8.606;2022-07-15T11:04:36;1.15;;;0.68;;
10410;SDS011;5251;52.112;8.606;2022-07-15T11:09:50;1.77;;;0.90;;
10410;SDS011;5251;52.112;8.606;2022-07-15T11:14:57;3.22;;;0.77;;
10410;SDS011;5251;52.112;8.606;2022-07-15T11:19:54;1.55;;;0.68;;
10410;SDS011;5251;52.112;8.606;2022-07-15T11:22:22;1.10;;;0.52;;
10410;SDS011;5251;52.112;8.606;2022-07-15T11:24:49;1.10;;;0.80;;
10410;SDS011;5251;52.112;8.606;2022-07-15T11:27:17;1.20;;;0.60;;
10410;SDS011;5251;52.112;8.606;2022-07-15T11:29:48;1.13;;;0.50;;
10410;SDS011;5251;52.112;8.606;2022-07-15T11:32:14;1.23;;;0.60;;
10410;SDS011;5251;52.112;8.606;2022-07-15T11:34:42;1.70;;;0.75;;
10410;SDS011;5251;52.112;8.606;2022-07-15T11:37:09;1.27;;;0.55;;
10410;SDS011;5251;52.112;8.606;2022-07-15T11:39:36;3.63;;;0.98;;
10410;SDS011;5251;52.112;8.606;2022-07-15T11:42:02;0.93;;;0.60;;
10410;SDS011;5251;52.112;8.606;2022-07-15T11:44:48;0.65;;;0.60;;
10410;SDS011;5251;52.112;8.606;2022-07-15T11:47:14;2.00;;;0.70;;
10410;SDS011;5251;52.112;8.606;2022-07-15T11:49:40;1.50;;;0.60;;
10410;SDS011;5251;52.112;8.606;2022-07-15T11:52:13;0.65;;;0.50;;
10410;SDS011;5251;52.112;8.606;2022-07-15T11:54:48;1.77;;;0.68;;
10410;SDS011;5251;52.112;8.606;2022-07-15T11:57:13;0.93;;;0.80;;
10410;SDS011;5251;52.112;8.606;2022-07-15T11:59:40;2.45;;;1.23;;
10410;SDS011;5251;52.112;8.606;2022-07-15T12:02:15;0.88;;;0.60;;
10410;SDS011;5251;52.112;8.606;2022-07-15T12:04:40;1.25;;;0.77;;
10410;SDS011;5251;52.112;8.606;2022-07-15T12:07:07;1.05;;;0.65;;
10410;SDS011;5251;52.112;8.606;2022-07-15T12:09:46;1.17;;;0.82;;
10410;SDS011;5251;52.112;8.606;2022-07-15T12:12:13;2.00;;;1.08;;
10410;SDS011;5251;52.112;8.606;2022-07-15T12:14:39;3.35;;;1.15;;
10410;SDS011;5251;52.112;8.606;2022-07-15T12:17:07;3.00;;;0.75;;
10410;SDS011;5251;52.112;8.606;2022-07-15T12:19:33;1.75;;;0.68;;
10410;SDS011;5251;52.112;8.606;2022-07-15T12:22:00;2.38;;;0.60;;
10410;SDS011;5251;52.112;8.606;2022-07-15T12:24:40;0.65;;;0.65;;
10410;SDS011;5251;52.112;8.606;2022-07-15T12:27:06;0.90;;;0.60;;
10410;SDS011;5251;52.112;8.606;2022-07-15T12:29:33;1.23;;;0.70;;
10410;SDS011;5251;52.112;8.606;2022-07-15T12:37:14;1.27;;;0.55;;
10410;SDS011;5251;52.112;8.606;2022-07-15T12:39:55;1.00;;;0.60;;
10410;SDS011;5251;52.112;8.606;2022-07-15T12:42:25;0.47;;;0.40;;
10410;SDS011;5251;52.112;8.606;2022-07-15T12:45:17;1.58;;;0.95;;
10410;SDS011;5251;52.112;8.606;2022-07-15T12:50:36;0.90;;;0.70;;
10410;SDS011;5251;52.112;8.606;2022-07-15T12:53:21;0.73;;;0.52;;
10410;SDS011;5251;52.112;8.606;2022-07-15T12:55:49;1.00;;;0.60;;
10410;SDS011;5251;52.112;8.606;2022-07-15T12:58:16;1.30;;;0.68;;
10410;SDS011;5251;52.112;8.606;2022-07-15T13:00:47;1.40;;;0.70;;
10410;SDS011;5251;52.112;8.606;2022-07-15T13:03:15;0.55;;;0.50;;
10410;SDS011;5251;52.112;8.606;2022-07-15T13:05:48;1.65;;;0.60;;
10410;SDS011;5251;52.112;8.606;2022-07-15T13:08:17;0.40;;;0.40;;
10410;SDS011;5251;52.112;8.606;2022-07-15T13:10:47;0.60;;;0.60;;
10410;SDS011;5251;52.112;8.606;2022-07-15T13:13:18;1.45;;;0.75;;
10410;SDS011;5251;52.112;8.606;2022-07-15T13:15:48;0.50;;;0.50;;
10410;SDS011;5251;52.112;8.606;2022-07-15T13:18:15;1.25;;;0.50;;
10410;SDS011;5251;52.112;8.606;2022-07-15T13:20:41;1.33;;;0.68;;
10410;SDS011;5251;52.112;8.606;2022-07-15T13:23:08;1.40;;;0.60;;
10410;SDS011;5251;52.112;8.606;2022-07-15T13:25:35;1.15;;;0.60;;
10410;SDS011;5251;52.112;8.606;2022-07-15T13:28:04;1.60;;;0.65;;
10410;SDS011;5251;52.112;8.606;2022-07-15T13:30:30;0.95;;;0.63;;
10410;SDS011;5251;52.112;8.606;2022-07-15T13:32:56;0.80;;;0.60;;
10410;SDS011;5251;52.112;8.606;2022-07-15T13:35:22;2.45;;;1.05;;
10410;SDS011;5251;52.112;8.606;2022-07-15T13:37:48;1.00;;;0.60;;
10410;SDS011;5251;52.112;8.606;2022-07-15T13:40:13;1.10;;;0.63;;
10410;SDS011;5251;52.112;8.606;2022-07-15T13:42:40;1.98;;;0.85;;
10410;SDS011;5251;52.112;8.606;2022-07-15T13:45:06;1.23;;;0.55;;
10410;SDS011;5251;52.112;8.606;2022-07-15T13:47:33;1.15;;;0.70;;
10410;SDS011;5251;52.112;8.606;2022-07-15T13:49:59;0.30;;;0.30;;
10410;SDS011;5251;52.112;8.606;2022-07-15T13:52:48;0.73;;;0.70;;
10410;SDS011;5251;52.112;8.606;2022-07-15T13:55:15;0.80;;;0.70;;
10410;SDS011;5251;52.112;8.606;2022-07-15T13:57:42;2.75;;;0.75;;
10410;SDS011;5251;52.112;8.606;2022-07-15T14:00:09;0.60;;;0.52;;
10410;SDS011;5251;52.112;8.606;2022-07-15T14:02:38;0.65;;;0.50;;
10410;SDS011;5251;52.112;8.606;2022-07-15T14:05:04;0.60;;;0.60;;
10410;SDS011;5251;52.112;8.606;2022-07-15T14:07:31;1.45;;;0.68;;
10410;SDS011;5251;52.112;8.606;2022-07-15T14:09:57;0.70;;;0.50;;
10410;SDS011;5251;52.112;8.606;2022-07-15T14:12:22;1.65;;;0.55;;
10410;SDS011;5251;52.112;8.606;2022-07-15T14:14:48;2.90;;;0.50;;
10410;SDS011;5251;52.112;8.606;2022-07-15T14:17:14;1.63;;;0.55;;
10410;SDS011;5251;52.112;8.606;2022-07-15T14:19:40;0.63;;;0.55;;
10410;SDS011;5251;52.112;8.606;2022-07-15T14:22:05;1.00;;;0.50;;
10410;SDS011;5251;52.112;8.606;2022-07-15T14:24:31;1.95;;;0.60;;
10410;SDS011;5251;52.112;8.606;2022-07-15T14:26:57;0.52;;;0.52;;
10410;SDS011;5251;52.112;8.606;2022-07-15T14:29:22;0.70;;;0.40;;
10410;SDS011;5251;52.112;8.606;2022-07-15T14:31:48;1.02;;;0.60;;
10410;SDS011;5251;52.112;8.606;2022-07-15T14:34:13;0.65;;;0.47;;
10410;SDS011;5251;52.112;8.606;2022-07-15T14:36:39;1.63;;;0.45;;
10410;SDS011;5251;52.112;8.606;2022-07-15T14:39:06;1.85;;;0.70;;
10410;SDS011;5251;52.112;8.606;2022-07-15T14:41:32;0.70;;;0.60;;
10410;SDS011;5251;52.112;8.606;2022-07-15T14:43:58;0.70;;;0.68;;
10410;SDS011;5251;52.112;8.606;2022-07-15T14:46:24;1.30;;;0.70;;
10410;SDS011;5251;52.112;8.606;2022-07-15T14:48:50;1.50;;;0.50;;
10410;SDS011;5251;52.112;8.606;2022-07-15T14:51:15;0.65;;;0.60;;
10410;SDS011;5251;52.112;8.606;2022-07-15T14:53:41;0.63;;;0.50;;
10410;SDS011;5251;52.112;8.606;2022-07-15T14:56:07;0.68;;;0.57;;
10410;SDS011;5251;52.112;8.606;2022-07-15T14:58:32;0.55;;;0.55;;
10410;SDS011;5251;52.112;8.606;2022-07-15T15:00:58;2.25;;;0.75;;
10410;SDS011;5251;52.112;8.606;2022-07-15T15:03:23;1.08;;;0.60;;
10410;SDS011;5251;52.112;8.606;2022-07-15T15:05:49;1.02;;;0.60;;
10410;SDS011;5251;52.112;8.606;2022-07-15T15:08:15;4.55;;;0.98;;
10410;SDS011;5251;52.112;8.606;2022-07-15T15:10:40;0.52;;;0.50;;
10410;SDS011;5251;52.112;8.606;2022-07-15T15:13:06;1.42;;;0.57;;
10410;SDS011;5251;52.112;8.606;2022-07-15T15:15:32;1.63;;;0.63;;
10410;SDS011;5251;52.112;8.606;2022-07-15T15:17:58;2.03;;;0.73;;
10410;SDS011;5251;52.112;8.606;2022-07-15T15:20:23;1.95;;;0.60;;
10410;SDS011;5251;52.112;8.606;2022-07-15T15:22:49;0.95;;;0.60;;
10410;SDS011;5251;52.112;8.606;2022-07-15T15:25:15;1.27;;;0.60;;
10410;SDS011;5251;52.112;8.606;2022-07-15T15:28:00;1.02;;;0.70;;
10410;SDS011;5251;52.112;8.606;2022-07-15T15:30:26;0.40;;;0.40;;
10410;SDS011;5251;52.112;8.606;2022-07-15T15:32:51;0.73;;;0.47;;
10410;SDS011;5251;52.112;8.606;2022-07-15T15:35:18;2.58;;;0.82;;
10410;SDS011;5251;52.112;8.606;2022-07-15T15:37:43;0.65;;;0.40;;
10410;SDS011;5251;52.112;8.606;2022-07-15T15:40:09;0.73;;;0.60;;
10410;SDS011;5251;52.112;8.606;2022-07-15T15:42:35;1.23;;;0.70;;
10410;SDS011;5251;52.112;8.606;2022-07-15T15:45:01;0.60;;;0.60;;
10410;SDS011;5251;52.112;8.606;2022-07-15T15:47:26;1.10;;;0.55;;
10410;SDS011;5251;52.112;8.606;2022-07-15T15:49:52;3.63;;;0.60;;
10410;SDS011;5251;52.112;8.606;2022-07-15T15:52:17;1.40;;;0.70;;
10410;SDS011;5251;52.112;8.606;2022-07-15T15:54:43;0.70;;;0.40;;